sensor_id;sensor_type;location;lat;lon;timestamp;P1;durP1;ratioP1;P2;durP2;ratioP2
75542;SDS011;64129;53.508;10.476;2023-04-23T00:00:08;2.72;;;2.40;;
75542;SDS011;64129;53.508;10.476;2023-04-23T00:02:38;2.83;;;2.63;;
75542;SDS011;64129;53.508;10.476;2023-04-23T00:05:06;3.38;;;2.70;;
75542;SDS011;64129;53.508;10.476;2023-04-23T00:07:33;2.88;;;2.58;;
75542;SDS011;64129;53.508;10.476;2023-04-23T00:10:00;2.80;;;2.55;;
75542;SDS011;64129;53.508;10.476;2023-04-23T00:12:30;4.30;;;3.00;;
75542;SDS011;64129;53.508;10.476;2023-04-23T00:14:57;3.83;;;2.80;;
75542;SDS011;64129;53.508;10.476;2023-04-23T00:17:25;3.45;;;2.90;;
75542;SDS011;64129;53.508;10.476;2023-04-23T00:19:51;4.95;;;3.15;;
75542;SDS011;64129;53.508;10.476;2023-04-23T00:22:18;3.72;;;3.20;;
75542;SDS011;64129;53.508;10.476;2023-04-23T00:24:45;3.15;;;2.85;;
75542;SDS011;64129;53.508;10.476;2023-04-23T00:27:12;4.65;;;2.92;;
75542;SDS011;64129;53.508;10.476;2023-04-23T00:29:38;5.25;;;3.47;;
75542;SDS011;64129;53.508;10.476;2023-04-23T00:32:06;3.42;;;3.13;;
75542;SDS011;64129;53.508;10.476;2023-04-23T00:34:32;4.35;;;3.05;;
75542;SDS011;64129;53.508;10.476;2023-04-23T00:36:59;3.25;;;2.90;;
75542;SDS011;64129;53.508;10.476;2023-04-23T00:39:25;3.83;;;3.53;;
75542;SDS011;64129;53.508;10.476;2023-04-23T00:41:52;4.50;;;3.45;;
75542;SDS011;64129;53.508;10.476;2023-04-23T00:44:19;4.32;;;3.58;;
75542;SDS011;64129;53.508;10.476;2023-04-23T00:46:45;3.35;;;3.08;;
75542;SDS011;64129;53.508;10.476;2023-04-23T00:49:12;4.90;;;3.78;;
75542;SDS011;64129;53.508;10.476;2023-04-23T00:51:39;3.72;;;3.30;;
75542;SDS011;64129;53.508;10.476;2023-04-23T00:54:06;6.07;;;3.60;;
75542;SDS011;64129;53.508;10.476;2023-04-23T00:56:32;4.15;;;3.55;;
75542;SDS011;64129;53.508;10.476;2023-04-23T00:58:59;4.82;;;3.63;;
75542;SDS011;64129;53.508;10.476;2023-04-23T01:01:28;5.68;;;3.75;;
75542;SDS011;64129;53.508;10.476;2023-04-23T01:03:55;4.65;;;4.18;;
75542;SDS011;64129;53.508;10.476;2023-04-23T01:06:22;4.28;;;3.45;;
75542;SDS011;64129;53.508;10.476;2023-04-23T01:08:50;4.78;;;4.00;;
75542;SDS011;64129;53.508;10.476;2023-04-23T01:11:17;4.80;;;3.88;;
75542;SDS011;64129;53.508;10.476;2023-04-23T01:13:43;6.30;;;4.57;;
75542;SDS011;64129;53.508;10.476;2023-04-23T01:16:10;6.28;;;4.38;;
75542;SDS011;64129;53.508;10.476;2023-04-23T01:18:37;7.05;;;5.07;;
75542;SDS011;64129;53.508;10.476;2023-04-23T01:21:06;7.63;;;5.25;;
75542;SDS011;64129;53.508;10.476;2023-04-23T01:23:35;5.65;;;4.82;;
75542;SDS011;64129;53.508;10.476;2023-04-23T01:26:02;5.93;;;5.25;;
75542;SDS011;64129;53.508;10.476;2023-04-23T01:28:29;6.03;;;4.55;;
75542;SDS011;64129;53.508;10.476;2023-04-23T01:30:55;5.88;;;4.72;;
75542;SDS011;64129;53.508;10.476;2023-04-23T01:33:23;6.97;;;4.75;;
75542;SDS011;64129;53.508;10.476;2023-04-23T01:35:50;5.95;;;5.07;;
75542;SDS011;64129;53.508;10.476;2023-04-23T01:38:17;7.47;;;5.10;;
75542;SDS011;64129;53.508;10.476;2023-04-23T01:40:46;6.25;;;5.70;;
75542;SDS011;64129;53.508;10.476;2023-04-23T01:43:12;5.88;;;5.22;;
75542;SDS011;64129;53.508;10.476;2023-04-23T01:45:39;5.57;;;5.07;;
75542;SDS011;64129;53.508;10.476;2023-04-23T01:48:06;6.90;;;5.45;;
75542;SDS011;64129;53.508;10.476;2023-04-23T01:50:33;7.60;;;5.72;;
75542;SDS011;64129;53.508;10.476;2023-04-23T01:52:59;5.38;;;4.75;;
75542;SDS011;64129;53.508;10.476;2023-04-23T01:55:26;8.90;;;6.20;;
75542;SDS011;64129;53.508;10.476;2023-04-23T01:57:52;8.45;;;5.18;;
75542;SDS011;64129;53.508;10.476;2023-04-23T02:00:19;6.22;;;5.38;;
75542;SDS011;64129;53.508;10.476;2023-04-23T02:02:45;5.32;;;4.72;;
75542;SDS011;64129;53.508;10.476;2023-04-23T02:05:13;6.07;;;4.82;;
75542;SDS011;64129;53.508;10.476;2023-04-23T02:07:42;5.45;;;4.65;;
75542;SDS011;64129;53.508;10.476;2023-04-23T02:10:09;6.38;;;5.30;;
75542;SDS011;64129;53.508;10.476;2023-04-23T02:12:36;6.82;;;5.18;;
75542;SDS011;64129;53.508;10.476;2023-04-23T02:15:04;6.25;;;5.63;;
75542;SDS011;64129;53.508;10.476;2023-04-23T02:17:32;5.90;;;5.25;;
75542;SDS011;64129;53.508;10.476;2023-04-23T02:19:59;7.30;;;5.80;;
75542;SDS011;64129;53.508;10.476;2023-04-23T02:22:26;6.05;;;5.47;;
75542;SDS011;64129;53.508;10.476;2023-04-23T02:24:53;6.35;;;4.78;;
75542;SDS011;64129;53.508;10.476;2023-04-23T02:27:20;6.65;;;5.78;;
75542;SDS011;64129;53.508;10.476;2023-04-23T02:29:47;8.35;;;5.38;;
75542;SDS011;64129;53.508;10.476;2023-04-23T02:32:14;5.57;;;5.07;;
75542;SDS011;64129;53.508;10.476;2023-04-23T02:34:41;6.82;;;5.35;;
75542;SDS011;64129;53.508;10.476;2023-04-23T02:37:07;8.38;;;5.18;;
75542;SDS011;64129;53.508;10.476;2023-04-23T02:39:34;7.18;;;6.45;;
75542;SDS011;64129;53.508;10.476;2023-04-23T02:44:28;6.50;;;5.63;;
75542;SDS011;64129;53.508;10.476;2023-04-23T02:46:55;7.43;;;6.00;;
75542;SDS011;64129;53.508;10.476;2023-04-23T02:49:21;6.40;;;5.70;;
75542;SDS011;64129;53.508;10.476;2023-04-23T02:51:48;7.95;;;6.80;;
75542;SDS011;64129;53.508;10.476;2023-04-23T02:54:14;8.18;;;7.10;;
75542;SDS011;64129;53.508;10.476;2023-04-23T02:56:41;7.30;;;6.60;;
75542;SDS011;64129;53.508;10.476;2023-04-23T02:59:09;8.02;;;7.00;;
75542;SDS011;64129;53.508;10.476;2023-04-23T03:01:36;9.60;;;6.75;;
75542;SDS011;64129;53.508;10.476;2023-04-23T03:04:05;7.45;;;6.53;;
75542;SDS011;64129;53.508;10.476;2023-04-23T03:06:32;8.43;;;6.47;;
75542;SDS011;64129;53.508;10.476;2023-04-23T03:09:00;8.27;;;6.85;;
75542;SDS011;64129;53.508;10.476;2023-04-23T03:11:27;7.93;;;6.95;;
75542;SDS011;64129;53.508;10.476;2023-04-23T03:13:55;8.57;;;7.43;;
75542;SDS011;64129;53.508;10.476;2023-04-23T03:16:22;10.10;;;7.80;;
75542;SDS011;64129;53.508;10.476;2023-04-23T03:18:49;8.77;;;7.50;;
75542;SDS011;64129;53.508;10.476;2023-04-23T03:21:15;10.93;;;7.93;;
75542;SDS011;64129;53.508;10.476;2023-04-23T03:23:42;9.35;;;7.38;;
75542;SDS011;64129;53.508;10.476;2023-04-23T03:26:08;11.10;;;8.52;;
75542;SDS011;64129;53.508;10.476;2023-04-23T03:28:35;17.02;;;11.30;;
75542;SDS011;64129;53.508;10.476;2023-04-23T03:31:02;15.43;;;11.40;;
75542;SDS011;64129;53.508;10.476;2023-04-23T03:33:28;17.00;;;12.73;;
75542;SDS011;64129;53.508;10.476;2023-04-23T03:35:55;17.20;;;12.98;;
75542;SDS011;64129;53.508;10.476;2023-04-23T03:38:26;20.38;;;14.73;;
75542;SDS011;64129;53.508;10.476;2023-04-23T03:40:55;21.65;;;14.52;;
75542;SDS011;64129;53.508;10.476;2023-04-23T03:43:22;22.77;;;15.38;;
75542;SDS011;64129;53.508;10.476;2023-04-23T03:46:00;21.63;;;15.50;;
75542;SDS011;64129;53.508;10.476;2023-04-23T03:48:29;18.58;;;13.45;;
75542;SDS011;64129;53.508;10.476;2023-04-23T03:50:59;19.80;;;14.18;;
75542;SDS011;64129;53.508;10.476;2023-04-23T03:53:42;22.25;;;15.80;;
75542;SDS011;64129;53.508;10.476;2023-04-23T03:56:29;21.75;;;15.85;;
75542;SDS011;64129;53.508;10.476;2023-04-23T03:59:09;22.63;;;16.50;;
75542;SDS011;64129;53.508;10.476;2023-04-23T04:01:36;20.77;;;15.68;;
75542;SDS011;64129;53.508;10.476;2023-04-23T04:04:03;21.40;;;15.23;;
75542;SDS011;64129;53.508;10.476;2023-04-23T04:06:31;22.40;;;15.80;;
75542;SDS011;64129;53.508;10.476;2023-04-23T04:08:58;22.55;;;16.13;;
75542;SDS011;64129;53.508;10.476;2023-04-23T04:11:24;28.45;;;17.27;;
75542;SDS011;64129;53.508;10.476;2023-04-23T04:13:51;26.90;;;18.80;;
75542;SDS011;64129;53.508;10.476;2023-04-23T04:16:18;26.52;;;17.52;;
75542;SDS011;64129;53.508;10.476;2023-04-23T04:18:44;24.65;;;16.75;;
75542;SDS011;64129;53.508;10.476;2023-04-23T04:21:11;23.65;;;16.52;;
75542;SDS011;64129;53.508;10.476;2023-04-23T04:23:37;23.83;;;15.75;;
75542;SDS011;64129;53.508;10.476;2023-04-23T04:26:05;22.25;;;16.33;;
75542;SDS011;64129;53.508;10.476;2023-04-23T04:28:33;27.08;;;18.20;;
75542;SDS011;64129;53.508;10.476;2023-04-23T04:31:01;25.75;;;17.70;;
75542;SDS011;64129;53.508;10.476;2023-04-23T04:33:28;25.27;;;17.35;;
75542;SDS011;64129;53.508;10.476;2023-04-23T04:35:56;23.20;;;16.23;;
75542;SDS011;64129;53.508;10.476;2023-04-23T04:38:22;28.25;;;18.63;;
75542;SDS011;64129;53.508;10.476;2023-04-23T04:40:49;23.90;;;16.63;;
75542;SDS011;64129;53.508;10.476;2023-04-23T04:43:15;25.27;;;17.65;;
75542;SDS011;64129;53.508;10.476;2023-04-23T04:45:42;26.70;;;17.70;;
75542;SDS011;64129;53.508;10.476;2023-04-23T04:48:09;23.88;;;17.42;;
75542;SDS011;64129;53.508;10.476;2023-04-23T04:50:36;27.05;;;16.52;;
75542;SDS011;64129;53.508;10.476;2023-04-23T04:53:02;26.05;;;17.42;;
75542;SDS011;64129;53.508;10.476;2023-04-23T04:55:29;28.05;;;18.77;;
75542;SDS011;64129;53.508;10.476;2023-04-23T04:57:55;29.88;;;18.42;;
75542;SDS011;64129;53.508;10.476;2023-04-23T05:00:23;27.80;;;19.33;;
75542;SDS011;64129;53.508;10.476;2023-04-23T05:02:53;31.85;;;18.88;;
75542;SDS011;64129;53.508;10.476;2023-04-23T05:05:20;25.92;;;15.55;;
75542;SDS011;64129;53.508;10.476;2023-04-23T05:10:14;23.02;;;15.30;;
75542;SDS011;64129;53.508;10.476;2023-04-23T05:12:41;20.48;;;13.65;;
75542;SDS011;64129;53.508;10.476;2023-04-23T05:15:09;22.70;;;13.70;;
75542;SDS011;64129;53.508;10.476;2023-04-23T05:17:38;18.80;;;13.23;;
75542;SDS011;64129;53.508;10.476;2023-04-23T05:20:06;21.20;;;12.65;;
75542;SDS011;64129;53.508;10.476;2023-04-23T05:22:36;17.70;;;11.38;;
75542;SDS011;64129;53.508;10.476;2023-04-23T05:25:07;15.40;;;9.88;;
75542;SDS011;64129;53.508;10.476;2023-04-23T05:27:35;11.75;;;8.50;;
75542;SDS011;64129;53.508;10.476;2023-04-23T05:30:02;15.02;;;8.60;;
75542;SDS011;64129;53.508;10.476;2023-04-23T05:32:30;14.68;;;9.07;;
75542;SDS011;64129;53.508;10.476;2023-04-23T05:34:57;12.75;;;9.65;;
75542;SDS011;64129;53.508;10.476;2023-04-23T05:37:25;11.90;;;8.18;;
75542;SDS011;64129;53.508;10.476;2023-04-23T05:39:51;13.40;;;9.07;;
75542;SDS011;64129;53.508;10.476;2023-04-23T05:42:18;12.52;;;8.48;;
75542;SDS011;64129;53.508;10.476;2023-04-23T05:44:45;10.20;;;8.07;;
75542;SDS011;64129;53.508;10.476;2023-04-23T05:47:12;9.07;;;6.95;;
75542;SDS011;64129;53.508;10.476;2023-04-23T05:49:39;9.48;;;6.10;;
75542;SDS011;64129;53.508;10.476;2023-04-23T05:52:06;8.00;;;6.05;;
75542;SDS011;64129;53.508;10.476;2023-04-23T05:54:32;8.88;;;6.10;;
75542;SDS011;64129;53.508;10.476;2023-04-23T05:56:59;7.25;;;5.07;;
75542;SDS011;64129;53.508;10.476;2023-04-23T05:59:26;6.05;;;4.20;;
75542;SDS011;64129;53.508;10.476;2023-04-23T06:01:52;5.90;;;4.70;;
75542;SDS011;64129;53.508;10.476;2023-04-23T06:04:19;6.40;;;4.63;;
75542;SDS011;64129;53.508;10.476;2023-04-23T06:06:46;7.35;;;4.80;;
75542;SDS011;64129;53.508;10.476;2023-04-23T06:09:13;5.60;;;4.07;;
75542;SDS011;64129;53.508;10.476;2023-04-23T06:11:39;6.07;;;4.60;;
75542;SDS011;64129;53.508;10.476;2023-04-23T06:14:06;6.72;;;5.10;;
75542;SDS011;64129;53.508;10.476;2023-04-23T06:16:33;7.13;;;5.00;;
75542;SDS011;64129;53.508;10.476;2023-04-23T06:18:59;6.22;;;4.55;;
75542;SDS011;64129;53.508;10.476;2023-04-23T06:21:26;5.97;;;4.70;;
75542;SDS011;64129;53.508;10.476;2023-04-23T06:23:52;8.65;;;4.35;;
75542;SDS011;64129;53.508;10.476;2023-04-23T06:26:19;5.05;;;4.38;;
75542;SDS011;64129;53.508;10.476;2023-04-23T06:28:48;6.88;;;5.03;;
75542;SDS011;64129;53.508;10.476;2023-04-23T06:31:25;6.45;;;4.57;;
75542;SDS011;64129;53.508;10.476;2023-04-23T06:33:52;6.57;;;4.38;;
75542;SDS011;64129;53.508;10.476;2023-04-23T06:36:18;6.20;;;4.68;;
75542;SDS011;64129;53.508;10.476;2023-04-23T06:38:45;7.40;;;5.05;;
75542;SDS011;64129;53.508;10.476;2023-04-23T06:41:11;6.97;;;4.97;;
75542;SDS011;64129;53.508;10.476;2023-04-23T06:43:40;9.85;;;5.43;;
75542;SDS011;64129;53.508;10.476;2023-04-23T06:46:13;8.93;;;5.40;;
75542;SDS011;64129;53.508;10.476;2023-04-23T06:48:40;7.55;;;5.30;;
75542;SDS011;64129;53.508;10.476;2023-04-23T06:51:07;7.90;;;5.05;;
75542;SDS011;64129;53.508;10.476;2023-04-23T06:53:33;7.60;;;5.65;;
75542;SDS011;64129;53.508;10.476;2023-04-23T06:56:00;5.63;;;4.90;;
75542;SDS011;64129;53.508;10.476;2023-04-23T06:58:26;7.15;;;5.60;;
75542;SDS011;64129;53.508;10.476;2023-04-23T07:00:56;6.13;;;4.68;;
75542;SDS011;64129;53.508;10.476;2023-04-23T07:03:31;6.25;;;4.90;;
75542;SDS011;64129;53.508;10.476;2023-04-23T07:05:57;6.45;;;4.57;;
75542;SDS011;64129;53.508;10.476;2023-04-23T07:08:24;8.43;;;5.28;;
75542;SDS011;64129;53.508;10.476;2023-04-23T07:10:51;6.85;;;4.93;;
75542;SDS011;64129;53.508;10.476;2023-04-23T07:13:18;6.20;;;4.50;;
75542;SDS011;64129;53.508;10.476;2023-04-23T07:15:45;7.43;;;4.88;;
75542;SDS011;64129;53.508;10.476;2023-04-23T07:18:11;6.95;;;4.85;;
75542;SDS011;64129;53.508;10.476;2023-04-23T07:20:38;5.78;;;3.83;;
75542;SDS011;64129;53.508;10.476;2023-04-23T07:23:05;5.38;;;3.30;;
75542;SDS011;64129;53.508;10.476;2023-04-23T07:25:31;4.00;;;3.28;;
75542;SDS011;64129;53.508;10.476;2023-04-23T07:27:58;5.43;;;2.92;;
75542;SDS011;64129;53.508;10.476;2023-04-23T07:30:25;4.38;;;3.35;;
75542;SDS011;64129;53.508;10.476;2023-04-23T07:32:52;3.70;;;2.92;;
75542;SDS011;64129;53.508;10.476;2023-04-23T07:35:19;6.30;;;3.58;;
75542;SDS011;64129;53.508;10.476;2023-04-23T07:37:46;4.20;;;3.15;;
75542;SDS011;64129;53.508;10.476;2023-04-23T07:40:13;4.70;;;2.92;;
75542;SDS011;64129;53.508;10.476;2023-04-23T07:42:39;3.03;;;2.67;;
75542;SDS011;64129;53.508;10.476;2023-04-23T07:45:06;4.53;;;3.00;;
75542;SDS011;64129;53.508;10.476;2023-04-23T07:47:32;5.13;;;3.45;;
75542;SDS011;64129;53.508;10.476;2023-04-23T07:49:59;5.18;;;3.95;;
75542;SDS011;64129;53.508;10.476;2023-04-23T07:52:26;4.93;;;3.75;;
75542;SDS011;64129;53.508;10.476;2023-04-23T07:54:52;5.47;;;3.53;;
75542;SDS011;64129;53.508;10.476;2023-04-23T07:57:19;5.45;;;4.38;;
75542;SDS011;64129;53.508;10.476;2023-04-23T07:59:45;9.73;;;4.68;;
75542;SDS011;64129;53.508;10.476;2023-04-23T08:02:12;6.40;;;4.88;;
75542;SDS011;64129;53.508;10.476;2023-04-23T08:04:38;6.95;;;5.80;;
75542;SDS011;64129;53.508;10.476;2023-04-23T08:07:05;6.40;;;5.43;;
75542;SDS011;64129;53.508;10.476;2023-04-23T08:09:31;8.98;;;6.43;;
75542;SDS011;64129;53.508;10.476;2023-04-23T08:11:58;8.18;;;6.05;;
75542;SDS011;64129;53.508;10.476;2023-04-23T08:14:24;8.23;;;5.78;;
75542;SDS011;64129;53.508;10.476;2023-04-23T08:16:51;6.07;;;5.22;;
75542;SDS011;64129;53.508;10.476;2023-04-23T08:19:17;6.50;;;5.88;;
75542;SDS011;64129;53.508;10.476;2023-04-23T08:21:44;7.78;;;5.72;;
75542;SDS011;64129;53.508;10.476;2023-04-23T08:24:10;7.72;;;5.70;;
75542;SDS011;64129;53.508;10.476;2023-04-23T08:26:37;6.00;;;5.18;;
75542;SDS011;64129;53.508;10.476;2023-04-23T08:29:03;6.75;;;5.15;;
75542;SDS011;64129;53.508;10.476;2023-04-23T08:31:31;7.03;;;5.40;;
75542;SDS011;64129;53.508;10.476;2023-04-23T08:33:58;7.38;;;4.35;;
75542;SDS011;64129;53.508;10.476;2023-04-23T08:36:24;6.72;;;4.75;;
75542;SDS011;64129;53.508;10.476;2023-04-23T08:38:52;4.43;;;3.67;;
75542;SDS011;64129;53.508;10.476;2023-04-23T08:41:20;8.18;;;4.40;;
75542;SDS011;64129;53.508;10.476;2023-04-23T08:43:56;6.45;;;4.00;;
75542;SDS011;64129;53.508;10.476;2023-04-23T08:46:25;6.90;;;4.38;;
75542;SDS011;64129;53.508;10.476;2023-04-23T08:48:56;5.90;;;4.70;;
75542;SDS011;64129;53.508;10.476;2023-04-23T08:51:25;6.35;;;4.18;;
75542;SDS011;64129;53.508;10.476;2023-04-23T08:53:57;6.57;;;4.07;;
75542;SDS011;64129;53.508;10.476;2023-04-23T08:56:24;6.47;;;4.03;;
75542;SDS011;64129;53.508;10.476;2023-04-23T08:58:52;8.30;;;4.13;;
75542;SDS011;64129;53.508;10.476;2023-04-23T09:03:46;5.35;;;4.38;;
75542;SDS011;64129;53.508;10.476;2023-04-23T09:06:13;5.80;;;4.40;;
75542;SDS011;64129;53.508;10.476;2023-04-23T09:08:40;4.68;;;4.00;;
75542;SDS011;64129;53.508;10.476;2023-04-23T09:11:07;6.25;;;4.40;;
75542;SDS011;64129;53.508;10.476;2023-04-23T09:13:34;5.53;;;4.22;;
75542;SDS011;64129;53.508;10.476;2023-04-23T09:16:01;5.30;;;3.90;;
75542;SDS011;64129;53.508;10.476;2023-04-23T09:18:30;4.35;;;3.60;;
75542;SDS011;64129;53.508;10.476;2023-04-23T09:20:57;7.40;;;4.22;;
75542;SDS011;64129;53.508;10.476;2023-04-23T09:23:25;6.03;;;4.32;;
75542;SDS011;64129;53.508;10.476;2023-04-23T09:25:51;5.72;;;3.70;;
75542;SDS011;64129;53.508;10.476;2023-04-23T09:28:18;5.22;;;4.38;;
75542;SDS011;64129;53.508;10.476;2023-04-23T09:30:44;6.18;;;3.90;;
75542;SDS011;64129;53.508;10.476;2023-04-23T09:33:11;5.93;;;3.80;;
75542;SDS011;64129;53.508;10.476;2023-04-23T09:35:38;4.72;;;4.00;;
75542;SDS011;64129;53.508;10.476;2023-04-23T09:38:07;5.53;;;4.03;;
75542;SDS011;64129;53.508;10.476;2023-04-23T09:40:35;3.78;;;3.35;;
75542;SDS011;64129;53.508;10.476;2023-04-23T09:43:03;5.03;;;3.55;;
75542;SDS011;64129;53.508;10.476;2023-04-23T09:45:30;4.93;;;3.97;;
75542;SDS011;64129;53.508;10.476;2023-04-23T09:47:58;5.07;;;3.65;;
75542;SDS011;64129;53.508;10.476;2023-04-23T09:50:37;6.50;;;3.92;;
75542;SDS011;64129;53.508;10.476;2023-04-23T09:53:06;5.20;;;3.38;;
75542;SDS011;64129;53.508;10.476;2023-04-23T09:55:37;6.90;;;4.60;;
75542;SDS011;64129;53.508;10.476;2023-04-23T09:58:05;4.28;;;3.70;;
75542;SDS011;64129;53.508;10.476;2023-04-23T10:00:36;5.25;;;4.40;;
75542;SDS011;64129;53.508;10.476;2023-04-23T10:05:31;4.30;;;3.42;;
75542;SDS011;64129;53.508;10.476;2023-04-23T10:08:09;3.95;;;3.42;;
75542;SDS011;64129;53.508;10.476;2023-04-23T10:10:38;4.55;;;3.70;;
75542;SDS011;64129;53.508;10.476;2023-04-23T10:13:16;4.07;;;3.63;;
75542;SDS011;64129;53.508;10.476;2023-04-23T10:15:47;5.43;;;3.95;;
75542;SDS011;64129;53.508;10.476;2023-04-23T10:18:13;5.00;;;3.67;;
75542;SDS011;64129;53.508;10.476;2023-04-23T10:20:40;5.18;;;3.75;;
75542;SDS011;64129;53.508;10.476;2023-04-23T10:23:08;5.28;;;4.35;;
75542;SDS011;64129;53.508;10.476;2023-04-23T10:25:36;4.32;;;3.92;;
75542;SDS011;64129;53.508;10.476;2023-04-23T10:28:05;4.50;;;3.72;;
75542;SDS011;64129;53.508;10.476;2023-04-23T10:30:33;5.25;;;4.13;;
75542;SDS011;64129;53.508;10.476;2023-04-23T10:33:00;5.60;;;4.28;;
75542;SDS011;64129;53.508;10.476;2023-04-23T10:35:27;4.65;;;4.25;;
75542;SDS011;64129;53.508;10.476;2023-04-23T10:37:55;4.63;;;3.67;;
75542;SDS011;64129;53.508;10.476;2023-04-23T10:40:24;6.22;;;4.45;;
75542;SDS011;64129;53.508;10.476;2023-04-23T10:42:56;6.00;;;4.20;;
75542;SDS011;64129;53.508;10.476;2023-04-23T10:45:24;4.93;;;4.20;;
75542;SDS011;64129;53.508;10.476;2023-04-23T10:47:56;4.70;;;3.63;;
75542;SDS011;64129;53.508;10.476;2023-04-23T10:52:51;5.32;;;3.63;;
75542;SDS011;64129;53.508;10.476;2023-04-23T10:55:20;4.93;;;3.95;;
75542;SDS011;64129;53.508;10.476;2023-04-23T11:06:08;5.80;;;4.70;;
75542;SDS011;64129;53.508;10.476;2023-04-23T11:08:49;5.25;;;4.53;;
75542;SDS011;64129;53.508;10.476;2023-04-23T11:11:18;5.30;;;4.63;;
75542;SDS011;64129;53.508;10.476;2023-04-23T11:14:09;6.93;;;4.85;;
75542;SDS011;64129;53.508;10.476;2023-04-23T11:16:39;4.30;;;3.65;;
75542;SDS011;64129;53.508;10.476;2023-04-23T11:19:09;4.85;;;3.97;;
75542;SDS011;64129;53.508;10.476;2023-04-23T11:24:36;4.57;;;3.60;;
75542;SDS011;64129;53.508;10.476;2023-04-23T11:27:11;6.57;;;4.30;;
75542;SDS011;64129;53.508;10.476;2023-04-23T11:29:39;6.50;;;4.72;;
75542;SDS011;64129;53.508;10.476;2023-04-23T11:32:07;5.50;;;3.90;;
75542;SDS011;64129;53.508;10.476;2023-04-23T11:34:39;5.75;;;4.95;;
75542;SDS011;64129;53.508;10.476;2023-04-23T11:37:08;8.63;;;5.28;;
75542;SDS011;64129;53.508;10.476;2023-04-23T11:39:39;5.90;;;5.25;;
75542;SDS011;64129;53.508;10.476;2023-04-23T11:42:10;5.38;;;4.88;;
75542;SDS011;64129;53.508;10.476;2023-04-23T11:44:38;5.07;;;4.43;;
75542;SDS011;64129;53.508;10.476;2023-04-23T11:47:10;6.78;;;5.25;;
75542;SDS011;64129;53.508;10.476;2023-04-23T11:49:38;5.22;;;4.72;;
75542;SDS011;64129;53.508;10.476;2023-04-23T11:52:08;6.50;;;5.15;;
75542;SDS011;64129;53.508;10.476;2023-04-23T11:54:35;5.40;;;4.90;;
75542;SDS011;64129;53.508;10.476;2023-04-23T11:57:02;5.85;;;5.35;;
75542;SDS011;64129;53.508;10.476;2023-04-23T11:59:29;4.97;;;4.47;;
75542;SDS011;64129;53.508;10.476;2023-04-23T12:01:57;7.18;;;5.15;;
75542;SDS011;64129;53.508;10.476;2023-04-23T12:04:25;4.70;;;4.22;;
75542;SDS011;64129;53.508;10.476;2023-04-23T12:06:56;5.50;;;5.00;;
75542;SDS011;64129;53.508;10.476;2023-04-23T12:11:50;5.68;;;5.15;;
75542;SDS011;64129;53.508;10.476;2023-04-23T12:14:18;6.10;;;5.35;;
75542;SDS011;64129;53.508;10.476;2023-04-23T12:16:49;5.28;;;4.72;;
75542;SDS011;64129;53.508;10.476;2023-04-23T12:19:24;5.20;;;4.70;;
75542;SDS011;64129;53.508;10.476;2023-04-23T12:21:55;4.93;;;4.38;;
75542;SDS011;64129;53.508;10.476;2023-04-23T12:24:27;5.38;;;4.80;;
75542;SDS011;64129;53.508;10.476;2023-04-23T12:26:56;4.95;;;4.45;;
75542;SDS011;64129;53.508;10.476;2023-04-23T12:29:30;6.28;;;5.10;;
75542;SDS011;64129;53.508;10.476;2023-04-23T12:31:57;5.72;;;4.13;;
75542;SDS011;64129;53.508;10.476;2023-04-23T12:34:25;5.18;;;4.57;;
75542;SDS011;64129;53.508;10.476;2023-04-23T12:36:53;4.97;;;4.57;;
75542;SDS011;64129;53.508;10.476;2023-04-23T12:41:54;5.30;;;4.80;;
75542;SDS011;64129;53.508;10.476;2023-04-23T12:44:24;5.03;;;4.53;;
75542;SDS011;64129;53.508;10.476;2023-04-23T12:46:55;4.45;;;3.97;;
75542;SDS011;64129;53.508;10.476;2023-04-23T12:49:22;5.85;;;4.18;;
75542;SDS011;64129;53.508;10.476;2023-04-23T12:51:49;5.05;;;3.90;;
75542;SDS011;64129;53.508;10.476;2023-04-23T12:54:17;4.68;;;4.28;;
75542;SDS011;64129;53.508;10.476;2023-04-23T12:56:44;3.80;;;3.42;;
75542;SDS011;64129;53.508;10.476;2023-04-23T12:59:11;4.15;;;3.75;;
75542;SDS011;64129;53.508;10.476;2023-04-23T13:01:37;4.57;;;4.13;;
75542;SDS011;64129;53.508;10.476;2023-04-23T13:04:04;5.30;;;3.70;;
75542;SDS011;64129;53.508;10.476;2023-04-23T13:06:31;4.68;;;4.28;;
75542;SDS011;64129;53.508;10.476;2023-04-23T13:08:57;3.80;;;3.50;;
75542;SDS011;64129;53.508;10.476;2023-04-23T13:11:25;4.88;;;4.35;;
75542;SDS011;64129;53.508;10.476;2023-04-23T13:13:52;3.88;;;3.47;;
75542;SDS011;64129;53.508;10.476;2023-04-23T13:16:18;3.60;;;3.25;;
75542;SDS011;64129;53.508;10.476;2023-04-23T13:18:45;5.68;;;3.08;;
75542;SDS011;64129;53.508;10.476;2023-04-23T13:21:11;4.28;;;3.53;;
75542;SDS011;64129;53.508;10.476;2023-04-23T13:23:38;3.72;;;2.65;;
75542;SDS011;64129;53.508;10.476;2023-04-23T13:26:04;3.40;;;3.10;;
75542;SDS011;64129;53.508;10.476;2023-04-23T13:28:33;3.30;;;3.00;;
75542;SDS011;64129;53.508;10.476;2023-04-23T13:31:01;3.60;;;2.83;;
75542;SDS011;64129;53.508;10.476;2023-04-23T13:33:28;3.22;;;2.85;;
75542;SDS011;64129;53.508;10.476;2023-04-23T13:35:55;3.17;;;2.45;;
75542;SDS011;64129;53.508;10.476;2023-04-23T13:38:24;3.35;;;2.80;;
75542;SDS011;64129;53.508;10.476;2023-04-23T13:40:51;3.58;;;2.60;;
75542;SDS011;64129;53.508;10.476;2023-04-23T13:43:18;3.13;;;2.33;;
75542;SDS011;64129;53.508;10.476;2023-04-23T13:45:45;2.53;;;2.33;;
75542;SDS011;64129;53.508;10.476;2023-04-23T13:48:15;3.97;;;2.60;;
75542;SDS011;64129;53.508;10.476;2023-04-23T13:50:42;2.30;;;2.10;;
75542;SDS011;64129;53.508;10.476;2023-04-23T13:53:10;2.40;;;2.15;;
75542;SDS011;64129;53.508;10.476;2023-04-23T13:55:37;3.00;;;2.42;;
75542;SDS011;64129;53.508;10.476;2023-04-23T13:58:04;3.20;;;2.53;;
75542;SDS011;64129;53.508;10.476;2023-04-23T14:00:32;3.83;;;2.40;;
75542;SDS011;64129;53.508;10.476;2023-04-23T14:02:58;2.50;;;2.20;;
75542;SDS011;64129;53.508;10.476;2023-04-23T14:05:25;2.42;;;2.20;;
75542;SDS011;64129;53.508;10.476;2023-04-23T14:07:52;4.20;;;2.78;;
75542;SDS011;64129;53.508;10.476;2023-04-23T14:10:18;3.20;;;2.45;;
75542;SDS011;64129;53.508;10.476;2023-04-23T14:12:44;2.70;;;2.33;;
75542;SDS011;64129;53.508;10.476;2023-04-23T14:15:11;2.75;;;2.55;;
75542;SDS011;64129;53.508;10.476;2023-04-23T14:17:38;2.67;;;2.40;;
75542;SDS011;64129;53.508;10.476;2023-04-23T14:20:08;3.28;;;2.53;;
75542;SDS011;64129;53.508;10.476;2023-04-23T14:22:36;3.13;;;2.65;;
75542;SDS011;64129;53.508;10.476;2023-04-23T14:25:03;3.20;;;2.75;;
75542;SDS011;64129;53.508;10.476;2023-04-23T14:27:39;3.03;;;2.58;;
75542;SDS011;64129;53.508;10.476;2023-04-23T14:30:18;2.47;;;2.28;;
75542;SDS011;64129;53.508;10.476;2023-04-23T14:32:46;2.88;;;2.47;;
75542;SDS011;64129;53.508;10.476;2023-04-23T14:35:14;2.40;;;1.92;;
75542;SDS011;64129;53.508;10.476;2023-04-23T14:37:41;2.40;;;2.20;;
75542;SDS011;64129;53.508;10.476;2023-04-23T14:40:13;3.10;;;2.80;;
75542;SDS011;64129;53.508;10.476;2023-04-23T14:42:45;3.55;;;3.25;;
75542;SDS011;64129;53.508;10.476;2023-04-23T14:45:13;4.00;;;2.65;;
75542;SDS011;64129;53.508;10.476;2023-04-23T14:47:41;2.95;;;2.25;;
75542;SDS011;64129;53.508;10.476;2023-04-23T14:50:13;3.45;;;2.83;;
75542;SDS011;64129;53.508;10.476;2023-04-23T14:52:42;3.65;;;3.08;;
75542;SDS011;64129;53.508;10.476;2023-04-23T14:55:12;2.53;;;2.33;;
75542;SDS011;64129;53.508;10.476;2023-04-23T14:57:39;2.63;;;2.15;;
75542;SDS011;64129;53.508;10.476;2023-04-23T15:00:05;3.75;;;2.75;;
75542;SDS011;64129;53.508;10.476;2023-04-23T15:05:00;4.75;;;2.13;;